sensor_id;sensor_type;location;lat;lon;timestamp;pressure;altitude;pressure_sealevel;temperature;humidity
62791;BME280;48830;53.426;10.300;2022-07-03T00:00:35;101803.13;;;18.92;67.40
62791;BME280;48830;53.426;10.300;2022-07-03T00:03:00;101803.13;;;18.94;68.00
62791;BME280;48830;53.426;10.300;2022-07-03T00:05:26;101804.88;;;18.93;67.82
62791;BME280;48830;53.426;10.300;2022-07-03T00:07:52;101810.06;;;18.93;67.32
62791;BME280;48830;53.426;10.300;2022-07-03T00:10:17;101800.53;;;18.95;67.59
62791;BME280;48830;53.426;10.300;2022-07-03T00:12:43;101794.44;;;18.96;67.38
62791;BME280;48830;53.426;10.300;2022-07-03T00:15:09;101791.84;;;18.96;67.64
62791;BME280;48830;53.426;10.300;2022-07-03T00:17:35;101795.31;;;18.97;67.13
62791;BME280;48830;53.426;10.300;2022-07-03T00:20:00;101788.34;;;18.97;67.00
62791;BME280;48830;53.426;10.300;2022-07-03T00:22:26;101787.50;;;18.95;67.08
62791;BME280;48830;53.426;10.300;2022-07-03T00:25:00;101787.50;;;18.95;67.51
62791;BME280;48830;53.426;10.300;2022-07-03T00:27:26;101789.22;;;18.93;67.20
62791;BME280;48830;53.426;10.300;2022-07-03T00:29:55;101777.09;;;18.92;67.13
62791;BME280;48830;53.426;10.300;2022-07-03T00:32:23;101784.06;;;18.90;67.83
62791;BME280;48830;53.426;10.300;2022-07-03T00:34:54;101785.78;;;18.94;67.41
62791;BME280;48830;53.426;10.300;2022-07-03T00:37:21;101791.84;;;18.93;67.22
62791;BME280;48830;53.426;10.300;2022-07-03T00:39:47;101784.88;;;18.94;67.80
62791;BME280;48830;53.426;10.300;2022-07-03T00:42:16;101786.63;;;18.93;67.90
62791;BME280;48830;53.426;10.300;2022-07-03T00:44:52;101781.41;;;18.93;68.32
62791;BME280;48830;53.426;10.300;2022-07-03T00:47:20;101779.69;;;18.92;66.79
62791;BME280;48830;53.426;10.300;2022-07-03T00:49:49;101776.22;;;18.92;67.72
62791;BME280;48830;53.426;10.300;2022-07-03T00:52:16;101773.63;;;18.90;67.94
62791;BME280;48830;53.426;10.300;2022-07-03T00:54:52;101774.47;;;18.92;67.07
62791;BME280;48830;53.426;10.300;2022-07-03T00:57:19;101773.63;;;18.90;67.61
62791;BME280;48830;53.426;10.300;2022-07-03T00:59:44;101764.09;;;18.84;68.97
62791;BME280;48830;53.426;10.300;2022-07-03T01:02:33;101775.38;;;18.82;68.31
62791;BME280;48830;53.426;10.300;2022-07-03T01:05:11;101764.94;;;18.82;68.68
62791;BME280;48830;53.426;10.300;2022-07-03T01:07:53;101760.63;;;18.76;69.37
62791;BME280;48830;53.426;10.300;2022-07-03T01:13:14;101750.25;;;18.73;68.06
62791;BME280;48830;53.426;10.300;2022-07-03T01:15:55;101744.16;;;18.70;68.76
62791;BME280;48830;53.426;10.300;2022-07-03T01:18:52;101734.59;;;18.64;68.73
62791;BME280;48830;53.426;10.300;2022-07-03T01:21:34;101732.00;;;18.62;68.86
62791;BME280;48830;53.426;10.300;2022-07-03T01:26:46;101734.63;;;18.62;67.78
62791;BME280;48830;53.426;10.300;2022-07-03T01:29:18;101738.06;;;18.60;68.29
62791;BME280;48830;53.426;10.300;2022-07-03T01:31:48;101732.00;;;18.56;69.72
62791;BME280;48830;53.426;10.300;2022-07-03T01:34:16;101738.06;;;18.55;69.55
62791;BME280;48830;53.426;10.300;2022-07-03T01:36:43;101742.44;;;18.50;70.03
62791;BME280;48830;53.426;10.300;2022-07-03T01:39:16;101732.03;;;18.47;70.16
62791;BME280;48830;53.426;10.300;2022-07-03T01:41:43;101732.91;;;18.46;69.84
62791;BME280;48830;53.426;10.300;2022-07-03T01:44:11;101723.38;;;18.39;70.79
62791;BME280;48830;53.426;10.300;2022-07-03T01:46:40;101722.50;;;18.42;69.75
62791;BME280;48830;53.426;10.300;2022-07-03T01:49:12;101718.16;;;18.39;70.13
62791;BME280;48830;53.426;10.300;2022-07-03T01:51:38;101720.78;;;18.33;70.49
62791;BME280;48830;53.426;10.300;2022-07-03T01:54:05;101716.47;;;18.26;71.09
62791;BME280;48830;53.426;10.300;2022-07-03T01:56:32;101712.13;;;18.25;69.98
62791;BME280;48830;53.426;10.300;2022-07-03T01:59:01;101707.78;;;18.18;70.74
62791;BME280;48830;53.426;10.300;2022-07-03T02:01:37;101709.50;;;18.19;70.39
62791;BME280;48830;53.426;10.300;2022-07-03T02:09:51;101710.41;;;18.08;69.91
62791;BME280;48830;53.426;10.300;2022-07-03T02:12:27;101698.25;;;18.07;70.76
62791;BME280;48830;53.426;10.300;2022-07-03T02:15:05;101687.84;;;18.01;71.13
62791;BME280;48830;53.426;10.300;2022-07-03T02:17:51;101695.69;;;17.98;70.79
62791;BME280;48830;53.426;10.300;2022-07-03T02:20:17;101697.41;;;17.98;70.60
62791;BME280;48830;53.426;10.300;2022-07-03T02:22:56;101687.88;;;17.92;71.25
62791;BME280;48830;53.426;10.300;2022-07-03T02:25:23;101693.94;;;17.91;71.10
62791;BME280;48830;53.426;10.300;2022-07-03T02:27:57;101695.69;;;17.89;70.78
62791;BME280;48830;53.426;10.300;2022-07-03T02:30:29;101683.53;;;17.85;71.25
62791;BME280;48830;53.426;10.300;2022-07-03T02:32:56;101686.13;;;17.85;71.17
62791;BME280;48830;53.426;10.300;2022-07-03T02:43:51;101681.78;;;17.81;71.72
62791;BME280;48830;53.426;10.300;2022-07-03T02:46:40;101692.19;;;17.79;72.01
62791;BME280;48830;53.426;10.300;2022-07-03T02:51:57;101691.28;;;17.70;72.43
62791;BME280;48830;53.426;10.300;2022-07-03T02:54:27;101694.78;;;17.66;72.59
62791;BME280;48830;53.426;10.300;2022-07-03T02:57:16;101686.97;;;17.67;72.51
62791;BME280;48830;53.426;10.300;2022-07-03T03:00:03;101688.69;;;17.64;72.62
62791;BME280;48830;53.426;10.300;2022-07-03T03:02:41;101680.03;;;17.62;72.96
62791;BME280;48830;53.426;10.300;2022-07-03T03:05:16;101683.50;;;17.57;73.62
62791;BME280;48830;53.426;10.300;2022-07-03T03:10:22;101685.22;;;17.52;73.52
62791;BME280;48830;53.426;10.300;2022-07-03T03:12:57;101681.75;;;17.53;73.51
62791;BME280;48830;53.426;10.300;2022-07-03T03:15:25;101679.16;;;17.53;73.01
62791;BME280;48830;53.426;10.300;2022-07-03T03:17:54;101672.22;;;17.52;73.15
62791;BME280;48830;53.426;10.300;2022-07-03T03:20:30;101686.97;;;17.50;73.87
62791;BME280;48830;53.426;10.300;2022-07-03T03:25:34;101686.97;;;17.46;73.66
62791;BME280;48830;53.426;10.300;2022-07-03T03:28:00;101680.91;;;17.44;73.64
62791;BME280;48830;53.426;10.300;2022-07-03T03:30:25;101686.09;;;17.44;74.53
62791;BME280;48830;53.426;10.300;2022-07-03T03:32:51;101683.50;;;17.39;74.60
62791;BME280;48830;53.426;10.300;2022-07-03T03:35:17;101677.44;;;17.39;74.69
62791;BME280;48830;53.426;10.300;2022-07-03T03:37:42;101674.81;;;17.40;73.84
62791;BME280;48830;53.426;10.300;2022-07-03T03:40:08;101671.34;;;17.41;73.70
62791;BME280;48830;53.426;10.300;2022-07-03T03:42:34;101673.09;;;17.41;73.80
62791;BME280;48830;53.426;10.300;2022-07-03T03:45:00;101661.81;;;17.42;73.37
62791;BME280;48830;53.426;10.300;2022-07-03T03:47:25;101663.56;;;17.41;73.47
62791;BME280;48830;53.426;10.300;2022-07-03T03:49:51;101662.66;;;17.38;73.85
62791;BME280;48830;53.426;10.300;2022-07-03T03:52:16;101661.81;;;17.37;73.58
62791;BME280;48830;53.426;10.300;2022-07-03T03:54:42;101660.94;;;17.35;73.77
62791;BME280;48830;53.426;10.300;2022-07-03T03:57:17;101658.34;;;17.37;73.53
62791;BME280;48830;53.426;10.300;2022-07-03T03:59:44;101657.50;;;17.33;73.80
62791;BME280;48830;53.426;10.300;2022-07-03T04:02:09;101660.94;;;17.35;73.11
62791;BME280;48830;53.426;10.300;2022-07-03T04:04:35;101657.47;;;17.36;73.44
62791;BME280;48830;53.426;10.300;2022-07-03T04:07:00;101655.75;;;17.40;73.12
62791;BME280;48830;53.426;10.300;2022-07-03T04:09:26;101652.31;;;17.39;73.37
62791;BME280;48830;53.426;10.300;2022-07-03T04:11:51;101652.28;;;17.41;73.33
62791;BME280;48830;53.426;10.300;2022-07-03T04:14:17;101663.53;;;17.37;74.39
62791;BME280;48830;53.426;10.300;2022-07-03T04:16:42;101654.03;;;17.39;74.46
62791;BME280;48830;53.426;10.300;2022-07-03T04:19:07;101653.16;;;17.38;74.47
62791;BME280;48830;53.426;10.300;2022-07-03T04:21:33;101660.97;;;17.38;75.01
62791;BME280;48830;53.426;10.300;2022-07-03T04:23:58;101647.09;;;17.41;74.12
62791;BME280;48830;53.426;10.300;2022-07-03T04:26:24;101650.56;;;17.41;74.73
62791;BME280;48830;53.426;10.300;2022-07-03T04:28:49;101649.69;;;17.41;75.25
62791;BME280;48830;53.426;10.300;2022-07-03T04:31:15;101645.38;;;17.44;74.11
62791;BME280;48830;53.426;10.300;2022-07-03T04:33:40;101650.56;;;17.53;73.69
62791;BME280;48830;53.426;10.300;2022-07-03T04:36:06;101653.16;;;17.58;73.36
62791;BME280;48830;53.426;10.300;2022-07-03T04:38:31;101643.63;;;17.65;72.84
62791;BME280;48830;53.426;10.300;2022-07-03T04:40:57;101643.66;;;17.71;73.16
62791;BME280;48830;53.426;10.300;2022-07-03T04:43:22;101648.00;;;17.75;73.26
62791;BME280;48830;53.426;10.300;2022-07-03T04:45:48;101649.69;;;17.68;74.23
62791;BME280;48830;53.426;10.300;2022-07-03T04:48:13;101647.09;;;17.70;73.30
62791;BME280;48830;53.426;10.300;2022-07-03T04:50:39;101642.81;;;17.78;72.54
62791;BME280;48830;53.426;10.300;2022-07-03T04:53:04;101643.66;;;17.92;71.96
62791;BME280;48830;53.426;10.300;2022-07-03T04:55:30;101644.50;;;18.00;71.99
62791;BME280;48830;53.426;10.300;2022-07-03T04:57:55;101642.75;;;18.05;71.80
62791;BME280;48830;53.426;10.300;2022-07-03T05:00:21;101638.44;;;18.04;72.28
62791;BME280;48830;53.426;10.300;2022-07-03T05:02:46;101638.44;;;18.14;71.91
62791;BME280;48830;53.426;10.300;2022-07-03T05:05:12;101636.59;;;18.34;71.94
62791;BME280;48830;53.426;10.300;2022-07-03T05:07:37;101640.00;;;18.57;70.18
62791;BME280;48830;53.426;10.300;2022-07-03T05:10:03;101639.97;;;18.73;70.42
62791;BME280;48830;53.426;10.300;2022-07-03T05:12:29;101634.66;;;18.94;69.08
62791;BME280;48830;53.426;10.300;2022-07-03T05:14:54;101638.03;;;19.11;68.60
62791;BME280;48830;53.426;10.300;2022-07-03T05:17:20;101637.94;;;19.27;68.00
62791;BME280;48830;53.426;10.300;2022-07-03T05:19:46;101641.31;;;19.35;67.56
62791;BME280;48830;53.426;10.300;2022-07-03T05:22:11;101638.75;;;19.30;68.03
62791;BME280;48830;53.426;10.300;2022-07-03T05:24:37;101635.16;;;19.45;67.21
62791;BME280;48830;53.426;10.300;2022-07-03T05:27:03;101628.09;;;19.65;67.00
62791;BME280;48830;53.426;10.300;2022-07-03T05:29:29;101635.88;;;19.70;66.70
62791;BME280;48830;53.426;10.300;2022-07-03T05:31:55;101631.50;;;19.72;66.22
62791;BME280;48830;53.426;10.300;2022-07-03T05:34:20;101632.22;;;19.85;66.07
62791;BME280;48830;53.426;10.300;2022-07-03T05:36:46;101633.88;;;19.95;65.54
62791;BME280;48830;53.426;10.300;2022-07-03T05:39:11;101628.44;;;20.16;65.97
62791;BME280;48830;53.426;10.300;2022-07-03T05:41:55;101628.44;;;20.18;64.59
62791;BME280;48830;53.426;10.300;2022-07-03T05:44:21;101637.00;;;20.31;65.09
62791;BME280;48830;53.426;10.300;2022-07-03T05:46:46;101637.75;;;20.39;64.87
62791;BME280;48830;53.426;10.300;2022-07-03T05:49:11;101635.03;;;20.51;64.79
62791;BME280;48830;53.426;10.300;2022-07-03T05:51:37;101633.09;;;20.65;64.94
62791;BME280;48830;53.426;10.300;2022-07-03T05:54:02;101633.81;;;20.78;64.58
62791;BME280;48830;53.426;10.300;2022-07-03T05:56:28;101634.69;;;20.79;63.98
62791;BME280;48830;53.426;10.300;2022-07-03T05:58:53;101652.91;;;20.82;63.64
62791;BME280;48830;53.426;10.300;2022-07-03T06:01:19;101666.13;;;20.73;63.63
62791;BME280;48830;53.426;10.300;2022-07-03T06:03:44;101651.91;;;20.93;63.08
62791;BME280;48830;53.426;10.300;2022-07-03T06:06:10;101656.13;;;21.02;62.84
62791;BME280;48830;53.426;10.300;2022-07-03T06:08:36;101654.16;;;21.18;63.30
62791;BME280;48830;53.426;10.300;2022-07-03T06:11:01;101663.84;;;21.11;62.44
62791;BME280;48830;53.426;10.300;2022-07-03T06:13:27;101663.03;;;21.08;62.05
62791;BME280;48830;53.426;10.300;2022-07-03T06:15:52;101671.59;;;21.17;62.55
62791;BME280;48830;53.426;10.300;2022-07-03T06:18:18;101662.47;;;21.47;62.27
62791;BME280;48830;53.426;10.300;2022-07-03T06:20:43;101656.88;;;21.69;61.41
62791;BME280;48830;53.426;10.300;2022-07-03T06:23:09;101650.88;;;21.62;61.33
62791;BME280;48830;53.426;10.300;2022-07-03T06:25:34;101659.13;;;21.89;62.33
62791;BME280;48830;53.426;10.300;2022-07-03T06:28:00;101657.22;;;21.98;60.74
62791;BME280;48830;53.426;10.300;2022-07-03T06:30:25;101655.28;;;22.11;61.04
62791;BME280;48830;53.426;10.300;2022-07-03T06:32:51;101650.72;;;22.21;60.23
62791;BME280;48830;53.426;10.300;2022-07-03T06:35:16;101649.53;;;22.39;60.23
62791;BME280;48830;53.426;10.300;2022-07-03T06:37:42;101657.91;;;22.56;59.62
62791;BME280;48830;53.426;10.300;2022-07-03T06:40:08;101650.69;;;22.67;59.42
62791;BME280;48830;53.426;10.300;2022-07-03T06:42:33;101645.25;;;22.75;59.33
62791;BME280;48830;53.426;10.300;2022-07-03T06:45:01;101641.91;;;22.68;58.21
62791;BME280;48830;53.426;10.300;2022-07-03T06:47:26;101654.13;;;22.69;57.10
62791;BME280;48830;53.426;10.300;2022-07-03T06:49:52;101652.63;;;22.58;56.95
62791;BME280;48830;53.426;10.300;2022-07-03T06:52:17;101649.31;;;22.49;57.09
62791;BME280;48830;53.426;10.300;2022-07-03T06:54:43;101640.38;;;22.58;57.55
62791;BME280;48830;53.426;10.300;2022-07-03T06:57:13;101640.09;;;22.70;56.65
62791;BME280;48830;53.426;10.300;2022-07-03T06:59:38;101641.28;;;22.99;56.92
62791;BME280;48830;53.426;10.300;2022-07-03T07:02:04;101647.16;;;22.68;57.41
62791;BME280;48830;53.426;10.300;2022-07-03T07:04:30;101645.97;;;22.83;57.04
62791;BME280;48830;53.426;10.300;2022-07-03T07:06:55;101639.19;;;23.13;56.67
62791;BME280;48830;53.426;10.300;2022-07-03T07:09:21;101640.19;;;23.08;56.56
62791;BME280;48830;53.426;10.300;2022-07-03T07:11:46;101641.44;;;23.28;56.91
62791;BME280;48830;53.426;10.300;2022-07-03T07:14:12;101641.63;;;23.58;55.28
62791;BME280;48830;53.426;10.300;2022-07-03T07:16:40;101636.38;;;23.58;54.47
62791;BME280;48830;53.426;10.300;2022-07-03T07:19:05;101636.94;;;23.71;55.47
62791;BME280;48830;53.426;10.300;2022-07-03T07:21:31;101641.25;;;23.73;54.84
62791;BME280;48830;53.426;10.300;2022-07-03T07:23:56;101642.88;;;23.77;55.58
62791;BME280;48830;53.426;10.300;2022-07-03T07:26:22;101655.03;;;23.81;54.34
62791;BME280;48830;53.426;10.300;2022-07-03T07:28:47;101654.63;;;23.97;54.79
62791;BME280;48830;53.426;10.300;2022-07-03T07:31:13;101648.06;;;24.13;54.27
62791;BME280;48830;53.426;10.300;2022-07-03T07:33:38;101650.38;;;24.56;54.35
62791;BME280;48830;53.426;10.300;2022-07-03T07:36:04;101655.59;;;24.87;54.76
62791;BME280;48830;53.426;10.300;2022-07-03T07:38:30;101651.56;;;25.04;52.76
62791;BME280;48830;53.426;10.300;2022-07-03T07:40:55;101652.31;;;24.79;52.71
62791;BME280;48830;53.426;10.300;2022-07-03T07:43:20;101651.50;;;25.07;53.07
62791;BME280;48830;53.426;10.300;2022-07-03T07:45:46;101659.91;;;25.18;53.12
62791;BME280;48830;53.426;10.300;2022-07-03T07:48:11;101653.31;;;25.33;52.93
62791;BME280;48830;53.426;10.300;2022-07-03T07:50:37;101654.66;;;25.45;52.81
62791;BME280;48830;53.426;10.300;2022-07-03T07:53:02;101650.47;;;25.65;51.98
62791;BME280;48830;53.426;10.300;2022-07-03T07:55:28;101645.78;;;25.75;51.95
62791;BME280;48830;53.426;10.300;2022-07-03T07:57:53;101646.28;;;25.86;51.66
62791;BME280;48830;53.426;10.300;2022-07-03T08:00:20;101644.13;;;25.46;52.45
62791;BME280;48830;53.426;10.300;2022-07-03T08:02:46;101646.88;;;25.42;52.66
62791;BME280;48830;53.426;10.300;2022-07-03T08:05:32;101641.81;;;25.62;52.27
62791;BME280;48830;53.426;10.300;2022-07-03T08:10:48;101648.59;;;25.69;53.05
62791;BME280;48830;53.426;10.300;2022-07-03T08:13:15;101643.75;;;25.83;52.19
62791;BME280;48830;53.426;10.300;2022-07-03T08:15:42;101653.56;;;26.28;52.59
62791;BME280;48830;53.426;10.300;2022-07-03T08:18:08;101648.50;;;26.47;50.64
62791;BME280;48830;53.426;10.300;2022-07-03T08:20:35;101645.66;;;26.28;50.68
62791;BME280;48830;53.426;10.300;2022-07-03T08:23:01;101647.19;;;25.85;51.25
62791;BME280;48830;53.426;10.300;2022-07-03T08:25:27;101650.00;;;26.29;51.19
62791;BME280;48830;53.426;10.300;2022-07-03T08:27:55;101639.19;;;26.84;51.67
62791;BME280;48830;53.426;10.300;2022-07-03T08:30:21;101640.56;;;27.16;50.62
62791;BME280;48830;53.426;10.300;2022-07-03T08:32:48;101635.00;;;27.00;50.33
62791;BME280;48830;53.426;10.300;2022-07-03T08:35:14;101641.91;;;27.26;49.00
62791;BME280;48830;53.426;10.300;2022-07-03T08:37:41;101642.59;;;27.31;48.59
62791;BME280;48830;53.426;10.300;2022-07-03T08:40:09;101637.47;;;27.48;50.16
62791;BME280;48830;53.426;10.300;2022-07-03T08:42:42;101635.94;;;27.85;49.16
62791;BME280;48830;53.426;10.300;2022-07-03T08:45:13;101641.03;;;27.90;49.03
62791;BME280;48830;53.426;10.300;2022-07-03T08:47:42;101643.13;;;28.02;47.46
62791;BME280;48830;53.426;10.300;2022-07-03T08:50:08;101638.38;;;28.10;47.85
62791;BME280;48830;53.426;10.300;2022-07-03T08:52:34;101642.53;;;28.36;48.30
62791;BME280;48830;53.426;10.300;2022-07-03T08:55:02;101638.38;;;28.29;46.80
62791;BME280;48830;53.426;10.300;2022-07-03T08:57:31;101635.03;;;28.25;46.74
62791;BME280;48830;53.426;10.300;2022-07-03T08:59:58;101637.28;;;28.35;47.96
62791;BME280;48830;53.426;10.300;2022-07-03T09:02:26;101637.34;;;28.13;46.86
62791;BME280;48830;53.426;10.300;2022-07-03T09:04:52;101643.09;;;27.83;47.10
62791;BME280;48830;53.426;10.300;2022-07-03T09:07:18;101636.56;;;28.31;46.58
62791;BME280;48830;53.426;10.300;2022-07-03T09:09:45;101635.50;;;28.73;46.37
62791;BME280;48830;53.426;10.300;2022-07-03T09:12:13;101634.22;;;29.00;47.17
62791;BME280;48830;53.426;10.300;2022-07-03T09:14:38;101630.28;;;29.26;45.59
62791;BME280;48830;53.426;10.300;2022-07-03T09:17:06;101629.75;;;29.20;45.42
62791;BME280;48830;53.426;10.300;2022-07-03T09:19:46;101635.56;;;28.34;45.49
62791;BME280;48830;53.426;10.300;2022-07-03T09:22:28;101649.03;;;29.05;46.80
62791;BME280;48830;53.426;10.300;2022-07-03T09:25:09;101645.50;;;29.40;45.97
62791;BME280;48830;53.426;10.300;2022-07-03T09:27:48;101648.19;;;29.75;44.33
62791;BME280;48830;53.426;10.300;2022-07-03T09:30:14;101646.47;;;29.74;43.98
62791;BME280;48830;53.426;10.300;2022-07-03T09:32:47;101642.84;;;30.10;44.65
62791;BME280;48830;53.426;10.300;2022-07-03T09:35:24;101641.59;;;30.17;43.02
62791;BME280;48830;53.426;10.300;2022-07-03T09:38:00;101644.16;;;30.18;42.29
62791;BME280;48830;53.426;10.300;2022-07-03T09:40:50;101646.66;;;30.21;43.51
62791;BME280;48830;53.426;10.300;2022-07-03T09:43:15;101637.41;;;30.13;42.16
62791;BME280;48830;53.426;10.300;2022-07-03T09:45:51;101637.69;;;30.06;43.08
62791;BME280;48830;53.426;10.300;2022-07-03T09:48:41;101636.25;;;30.34;44.28
62791;BME280;48830;53.426;10.300;2022-07-03T09:53:59;101639.19;;;30.61;43.11
62791;BME280;48830;53.426;10.300;2022-07-03T09:56:38;101626.91;;;30.76;41.28
62791;BME280;48830;53.426;10.300;2022-07-03T09:59:05;101630.72;;;30.54;41.29
62791;BME280;48830;53.426;10.300;2022-07-03T10:01:31;101632.47;;;30.22;41.91
62791;BME280;48830;53.426;10.300;2022-07-03T10:04:17;101623.53;;;29.38;42.84
62791;BME280;48830;53.426;10.300;2022-07-03T10:06:58;101619.31;;;29.86;42.63
62791;BME280;48830;53.426;10.300;2022-07-03T10:09:26;101625.84;;;30.47;41.89
62791;BME280;48830;53.426;10.300;2022-07-03T10:11:52;101622.44;;;30.76;40.48
62791;BME280;48830;53.426;10.300;2022-07-03T10:14:21;101624.22;;;30.92;41.37
62791;BME280;48830;53.426;10.300;2022-07-03T10:16:47;101623.44;;;30.58;40.72
62791;BME280;48830;53.426;10.300;2022-07-03T10:19:21;101620.28;;;30.18;42.32
62791;BME280;48830;53.426;10.300;2022-07-03T10:24:17;101619.38;;;30.02;41.93
62791;BME280;48830;53.426;10.300;2022-07-03T10:26:43;101625.56;;;30.67;39.99
62791;BME280;48830;53.426;10.300;2022-07-03T10:29:09;101617.59;;;31.15;39.86
62791;BME280;48830;53.426;10.300;2022-07-03T10:31:37;101625.13;;;31.38;40.25
62791;BME280;48830;53.426;10.300;2022-07-03T10:34:04;101618.47;;;30.99;40.48
62791;BME280;48830;53.426;10.300;2022-07-03T10:36:32;101627.22;;;31.47;40.38
62791;BME280;48830;53.426;10.300;2022-07-03T10:39:04;101621.88;;;31.33;40.17
62791;BME280;48830;53.426;10.300;2022-07-03T10:41:40;101622.50;;;30.43;40.96
62791;BME280;48830;53.426;10.300;2022-07-03T10:44:25;101616.88;;;29.66;42.23
62791;BME280;48830;53.426;10.300;2022-07-03T10:50:03;101628.75;;;29.92;42.72
62791;BME280;48830;53.426;10.300;2022-07-03T10:52:28;101625.53;;;30.02;42.50
62791;BME280;48830;53.426;10.300;2022-07-03T10:54:56;101629.91;;;29.86;42.89
62791;BME280;48830;53.426;10.300;2022-07-03T10:57:21;101626.44;;;30.19;42.29
62791;BME280;48830;53.426;10.300;2022-07-03T11:02:32;101619.53;;;30.81;41.59
62791;BME280;48830;53.426;10.300;2022-07-03T11:07:28;101624.09;;;30.79;40.57
62791;BME280;48830;53.426;10.300;2022-07-03T11:36:29;101607.31;;;31.54;37.59
62791;BME280;48830;53.426;10.300;2022-07-03T11:41:21;101594.22;;;31.80;37.72
62791;BME280;48830;53.426;10.300;2022-07-03T11:43:50;101589.13;;;31.77;37.34
62791;BME280;48830;53.426;10.300;2022-07-03T11:46:17;101595.13;;;31.95;38.05
62791;BME280;48830;53.426;10.300;2022-07-03T11:48:43;101598.06;;;31.90;37.89
62791;BME280;48830;53.426;10.300;2022-07-03T11:51:08;101597.03;;;32.07;38.04
62791;BME280;48830;53.426;10.300;2022-07-03T11:53:38;101595.53;;;32.03;36.67
62791;BME280;48830;53.426;10.300;2022-07-03T11:56:07;101595.50;;;32.17;38.23
62791;BME280;48830;53.426;10.300;2022-07-03T12:04:02;101605.09;;;32.34;39.30
62791;BME280;48830;53.426;10.300;2022-07-03T12:06:35;101601.97;;;32.42;37.36
62791;BME280;48830;53.426;10.300;2022-07-03T12:09:02;101603.66;;;32.28;37.27
62791;BME280;48830;53.426;10.300;2022-07-03T12:11:27;101598.28;;;32.30;37.01
62791;BME280;48830;53.426;10.300;2022-07-03T12:13:53;101595.41;;;32.47;37.57
62791;BME280;48830;53.426;10.300;2022-07-03T12:16:19;101591.44;;;32.26;36.75
62791;BME280;48830;53.426;10.300;2022-07-03T12:19:03;101599.50;;;32.24;36.46
62791;BME280;48830;53.426;10.300;2022-07-03T12:21:35;101592.38;;;31.96;37.11
62791;BME280;48830;53.426;10.300;2022-07-03T12:24:09;101589.88;;;31.79;37.20
62791;BME280;48830;53.426;10.300;2022-07-03T12:26:36;101599.56;;;31.05;36.98
62791;BME280;48830;53.426;10.300;2022-07-03T12:29:12;101595.72;;;30.95;37.53
62791;BME280;48830;53.426;10.300;2022-07-03T12:31:39;101589.31;;;31.59;37.49
62791;BME280;48830;53.426;10.300;2022-07-03T12:34:06;101585.47;;;31.94;37.77
62791;BME280;48830;53.426;10.300;2022-07-03T12:36:31;101591.59;;;32.23;38.02
62791;BME280;48830;53.426;10.300;2022-07-03T12:38:58;101583.16;;;32.30;37.66
62791;BME280;48830;53.426;10.300;2022-07-03T12:41:25;101587.63;;;32.30;37.05
62791;BME280;48830;53.426;10.300;2022-07-03T12:43:52;101584.56;;;32.22;36.77
62791;BME280;48830;53.426;10.300;2022-07-03T12:46:34;101579.03;;;32.53;37.83
62791;BME280;48830;53.426;10.300;2022-07-03T12:49:08;101580.34;;;32.60;37.63
62791;BME280;48830;53.426;10.300;2022-07-03T12:54:11;101577.34;;;32.94;35.58
62791;BME280;48830;53.426;10.300;2022-07-03T12:56:38;101573.53;;;33.10;35.45
62791;BME280;48830;53.426;10.300;2022-07-03T12:59:03;101578.47;;;31.48;37.35
62791;BME280;48830;53.426;10.300;2022-07-03T13:02:02;101573.09;;;32.21;37.13
62791;BME280;48830;53.426;10.300;2022-07-03T13:04:38;101582.50;;;32.12;36.56
62791;BME280;48830;53.426;10.300;2022-07-03T13:07:07;101577.53;;;32.49;36.23
62791;BME280;48830;53.426;10.300;2022-07-03T13:09:34;101571.69;;;31.87;36.03
62791;BME280;48830;53.426;10.300;2022-07-03T13:12:00;101566.53;;;32.27;36.57
62791;BME280;48830;53.426;10.300;2022-07-03T13:14:25;101563.78;;;32.70;37.13
62791;BME280;48830;53.426;10.300;2022-07-03T13:16:55;101554.03;;;32.83;36.09
62791;BME280;48830;53.426;10.300;2022-07-03T13:19:22;101559.97;;;32.74;35.46
62791;BME280;48830;53.426;10.300;2022-07-03T13:21:51;101564.88;;;32.80;36.83
62791;BME280;48830;53.426;10.300;2022-07-03T13:24:17;101566.84;;;32.63;36.62
62791;BME280;48830;53.426;10.300;2022-07-03T13:26:44;101562.06;;;32.69;36.53
62791;BME280;48830;53.426;10.300;2022-07-03T13:29:10;101559.31;;;32.70;36.78
62791;BME280;48830;53.426;10.300;2022-07-03T13:31:36;101559.25;;;32.57;37.11
62791;BME280;48830;53.426;10.300;2022-07-03T13:34:01;101558.72;;;32.52;35.74
62791;BME280;48830;53.426;10.300;2022-07-03T13:36:28;101562.06;;;32.69;36.06
62791;BME280;48830;53.426;10.300;2022-07-03T13:38:54;101561.84;;;32.72;36.46
62791;BME280;48830;53.426;10.300;2022-07-03T13:41:20;101554.97;;;32.82;36.87
62791;BME280;48830;53.426;10.300;2022-07-03T13:43:47;101552.41;;;32.95;36.67
62791;BME280;48830;53.426;10.300;2022-07-03T13:46:17;101551.56;;;32.94;36.42
62791;BME280;48830;53.426;10.300;2022-07-03T13:48:43;101546.75;;;31.74;36.05
62791;BME280;48830;53.426;10.300;2022-07-03T13:51:08;101532.63;;;32.16;36.65
62791;BME280;48830;53.426;10.300;2022-07-03T13:53:35;101537.91;;;32.45;35.64
62791;BME280;48830;53.426;10.300;2022-07-03T13:56:00;101549.06;;;32.08;35.99
62791;BME280;48830;53.426;10.300;2022-07-03T13:58:26;101545.41;;;32.52;36.64
62791;BME280;48830;53.426;10.300;2022-07-03T14:00:53;101542.63;;;32.81;36.93
62791;BME280;48830;53.426;10.300;2022-07-03T14:03:19;101545.41;;;32.79;36.75
62791;BME280;48830;53.426;10.300;2022-07-03T14:05:44;101536.84;;;32.88;36.39
62791;BME280;48830;53.426;10.300;2022-07-03T14:08:10;101545.31;;;32.39;36.00